sensor_id;sensor_type;location;lat;lon;timestamp;pressure;altitude;pressure_sealevel;temperature;humidity
55070;BME280;40967;52.070;8.596;2023-03-03T00:00:42;101299.13;;;2.45;91.69
55070;BME280;40967;52.070;8.596;2023-03-03T00:03:09;101299.97;;;2.52;91.84
55070;BME280;40967;52.070;8.596;2023-03-03T00:05:36;101276.84;;;2.38;91.97
55070;BME280;40967;52.070;8.596;2023-03-03T00:08:02;101301.41;;;2.54;91.15
55070;BME280;40967;52.070;8.596;2023-03-03T00:10:28;101290.72;;;2.54;91.49
55070;BME280;40967;52.070;8.596;2023-03-03T00:12:54;101292.38;;;2.55;91.00
55070;BME280;40967;52.070;8.596;2023-03-03T00:15:22;101285.09;;;2.43;91.57
55070;BME280;40967;52.070;8.596;2023-03-03T00:17:48;101290.03;;;2.46;91.50
55070;BME280;40967;52.070;8.596;2023-03-03T00:23:19;101303.47;;;2.52;91.59
55070;BME280;40967;52.070;8.596;2023-03-03T00:25:48;101299.16;;;2.51;91.80
55070;BME280;40967;52.070;8.596;2023-03-03T00:28:31;101292.94;;;2.44;91.51
55070;BME280;40967;52.070;8.596;2023-03-03T00:31:53;101275.34;;;2.35;91.45
55070;BME280;40967;52.070;8.596;2023-03-03T00:34:24;101304.50;;;2.51;91.71
55070;BME280;40967;52.070;8.596;2023-03-03T00:36:55;101308.03;;;2.52;91.39
55070;BME280;40967;52.070;8.596;2023-03-03T00:39:35;101302.66;;;2.52;91.47
55070;BME280;40967;52.070;8.596;2023-03-03T00:42:01;101290.28;;;2.51;91.22
55070;BME280;40967;52.070;8.596;2023-03-03T00:44:42;101289.25;;;2.52;91.60
55070;BME280;40967;52.070;8.596;2023-03-03T00:50:17;101295.84;;;2.56;91.06
55070;BME280;40967;52.070;8.596;2023-03-03T00:55:37;101300.22;;;2.57;90.90
55070;BME280;40967;52.070;8.596;2023-03-03T00:58:03;101285.53;;;2.46;90.66
55070;BME280;40967;52.070;8.596;2023-03-03T01:00:29;101300.63;;;2.54;90.62
55070;BME280;40967;52.070;8.596;2023-03-03T01:02:54;101283.84;;;2.45;91.13
55070;BME280;40967;52.070;8.596;2023-03-03T01:05:21;101294.41;;;2.47;91.43
55070;BME280;40967;52.070;8.596;2023-03-03T01:07:46;101290.44;;;2.43;91.73
55070;BME280;40967;52.070;8.596;2023-03-03T01:10:12;101279.72;;;2.36;90.99
55070;BME280;40967;52.070;8.596;2023-03-03T01:12:38;101291.09;;;2.45;91.02
55070;BME280;40967;52.070;8.596;2023-03-03T01:15:06;101297.31;;;2.52;90.42
55070;BME280;40967;52.070;8.596;2023-03-03T01:17:32;101300.34;;;2.49;90.25
55070;BME280;40967;52.070;8.596;2023-03-03T01:19:59;101308.81;;;2.52;90.49
55070;BME280;40967;52.070;8.596;2023-03-03T01:22:24;101311.50;;;2.52;90.46
55070;BME280;40967;52.070;8.596;2023-03-03T01:24:50;101310.69;;;2.52;90.16
55070;BME280;40967;52.070;8.596;2023-03-03T01:27:15;101307.63;;;2.55;90.18
55070;BME280;40967;52.070;8.596;2023-03-03T01:29:41;101301.22;;;2.56;90.03
55070;BME280;40967;52.070;8.596;2023-03-03T01:32:06;101297.53;;;2.57;89.74
55070;BME280;40967;52.070;8.596;2023-03-03T01:34:32;101296.28;;;2.59;89.42
55070;BME280;40967;52.070;8.596;2023-03-03T01:36:58;101297.97;;;2.60;89.45
55070;BME280;40967;52.070;8.596;2023-03-03T01:39:25;101288.22;;;2.53;89.30
55070;BME280;40967;52.070;8.596;2023-03-03T01:41:51;101278.31;;;2.47;89.39
55070;BME280;40967;52.070;8.596;2023-03-03T01:44:16;101303.28;;;2.54;89.47
55070;BME280;40967;52.070;8.596;2023-03-03T01:47:10;101311.56;;;2.59;89.20
55070;BME280;40967;52.070;8.596;2023-03-03T01:49:57;101307.22;;;2.58;89.28
55070;BME280;40967;52.070;8.596;2023-03-03T01:52:38;101292.59;;;2.54;89.50
55070;BME280;40967;52.070;8.596;2023-03-03T01:55:14;101290.91;;;2.53;89.53
55070;BME280;40967;52.070;8.596;2023-03-03T01:57:45;101285.56;;;2.53;90.08
55070;BME280;40967;52.070;8.596;2023-03-03T02:00:14;101297.94;;;2.54;89.63
55070;BME280;40967;52.070;8.596;2023-03-03T02:02:40;101303.47;;;2.52;90.06
55070;BME280;40967;52.070;8.596;2023-03-03T02:05:06;101300.97;;;2.44;89.81
55070;BME280;40967;52.070;8.596;2023-03-03T02:07:32;101287.50;;;2.31;90.26
55070;BME280;40967;52.070;8.596;2023-03-03T02:10:05;101301.16;;;2.43;90.30
55070;BME280;40967;52.070;8.596;2023-03-03T02:12:35;101303.19;;;2.41;90.44
55070;BME280;40967;52.070;8.596;2023-03-03T02:15:15;101304.84;;;2.42;90.76
55070;BME280;40967;52.070;8.596;2023-03-03T02:17:41;101297.63;;;2.36;90.56
55070;BME280;40967;52.070;8.596;2023-03-03T02:20:13;101284.19;;;2.29;90.99
55070;BME280;40967;52.070;8.596;2023-03-03T02:28:31;101300.50;;;2.34;90.92
55070;BME280;40967;52.070;8.596;2023-03-03T02:30:59;101300.94;;;2.38;90.94
55070;BME280;40967;52.070;8.596;2023-03-03T02:33:25;101297.22;;;2.39;90.90
55070;BME280;40967;52.070;8.596;2023-03-03T02:35:51;101303.84;;;2.43;91.01
55070;BME280;40967;52.070;8.596;2023-03-03T02:43:27;101310.16;;;2.35;91.26
55070;BME280;40967;52.070;8.596;2023-03-03T02:45:56;101310.56;;;2.32;91.44
55070;BME280;40967;52.070;8.596;2023-03-03T02:48:22;101317.13;;;2.29;91.81
55070;BME280;40967;52.070;8.596;2023-03-03T02:50:47;101310.13;;;2.28;91.76
55070;BME280;40967;52.070;8.596;2023-03-03T02:53:12;101314.72;;;2.35;91.65
55070;BME280;40967;52.070;8.596;2023-03-03T02:55:38;101297.38;;;2.30;92.38
55070;BME280;40967;52.070;8.596;2023-03-03T02:58:03;101298.22;;;2.31;91.83
55070;BME280;40967;52.070;8.596;2023-03-03T03:00:28;101314.09;;;2.33;91.96
55070;BME280;40967;52.070;8.596;2023-03-03T03:02:54;101300.91;;;2.31;92.39
55070;BME280;40967;52.070;8.596;2023-03-03T03:05:19;101303.56;;;2.31;91.52
55070;BME280;40967;52.070;8.596;2023-03-03T03:07:45;101306.06;;;2.33;91.65
55070;BME280;40967;52.070;8.596;2023-03-03T03:10:10;101306.69;;;2.35;91.31
55070;BME280;40967;52.070;8.596;2023-03-03T03:12:35;101306.84;;;2.33;90.97
55070;BME280;40967;52.070;8.596;2023-03-03T03:15:01;101296.34;;;2.31;91.01
55070;BME280;40967;52.070;8.596;2023-03-03T03:17:27;101291.41;;;2.28;90.86
55070;BME280;40967;52.070;8.596;2023-03-03T03:19:52;101292.88;;;2.31;91.00
55070;BME280;40967;52.070;8.596;2023-03-03T03:22:17;101298.03;;;2.33;90.44
55070;BME280;40967;52.070;8.596;2023-03-03T03:24:43;101288.50;;;2.30;90.03
55070;BME280;40967;52.070;8.596;2023-03-03T03:27:09;101278.94;;;2.14;90.50
55070;BME280;40967;52.070;8.596;2023-03-03T03:29:37;101300.06;;;2.30;90.42
55070;BME280;40967;52.070;8.596;2023-03-03T03:32:03;101290.53;;;2.21;90.12
55070;BME280;40967;52.070;8.596;2023-03-03T03:34:28;101306.63;;;2.28;90.40
55070;BME280;40967;52.070;8.596;2023-03-03T03:36:53;101290.94;;;2.18;89.73
55070;BME280;40967;52.070;8.596;2023-03-03T03:39:19;101309.31;;;2.28;89.79
55070;BME280;40967;52.070;8.596;2023-03-03T03:41:44;101324.56;;;2.27;89.80
55070;BME280;40967;52.070;8.596;2023-03-03T03:44:10;101314.03;;;2.26;88.95
55070;BME280;40967;52.070;8.596;2023-03-03T03:46:35;101319.78;;;2.23;89.19
55070;BME280;40967;52.070;8.596;2023-03-03T03:49:01;101318.69;;;2.17;89.51
55070;BME280;40967;52.070;8.596;2023-03-03T03:51:26;101306.13;;;2.11;89.42
55070;BME280;40967;52.070;8.596;2023-03-03T03:53:51;101318.06;;;2.15;89.75
55070;BME280;40967;52.070;8.596;2023-03-03T03:56:17;101320.13;;;2.13;89.11
55070;BME280;40967;52.070;8.596;2023-03-03T03:58:42;101306.69;;;2.07;89.49
55070;BME280;40967;52.070;8.596;2023-03-03T04:01:08;101307.53;;;2.07;89.24
55070;BME280;40967;52.070;8.596;2023-03-03T04:03:34;101315.53;;;2.07;89.67
55070;BME280;40967;52.070;8.596;2023-03-03T04:05:59;101308.91;;;2.03;89.67
55070;BME280;40967;52.070;8.596;2023-03-03T04:08:25;101311.44;;;2.05;89.78
55070;BME280;40967;52.070;8.596;2023-03-03T04:10:50;101311.44;;;2.05;89.47
55070;BME280;40967;52.070;8.596;2023-03-03T04:13:16;101297.59;;;2.01;90.24
55070;BME280;40967;52.070;8.596;2023-03-03T04:15:41;101293.25;;;2.00;90.29
55070;BME280;40967;52.070;8.596;2023-03-03T04:18:06;101285.63;;;1.97;90.25
55070;BME280;40967;52.070;8.596;2023-03-03T04:20:32;101305.03;;;2.06;89.83
55070;BME280;40967;52.070;8.596;2023-03-03T04:22:57;101298.03;;;2.05;90.11
55070;BME280;40967;52.070;8.596;2023-03-03T04:25:23;101298.66;;;2.07;89.96
55070;BME280;40967;52.070;8.596;2023-03-03T04:27:48;101292.25;;;2.01;89.74
55070;BME280;40967;52.070;8.596;2023-03-03T04:30:17;101301.97;;;2.09;89.85
55070;BME280;40967;52.070;8.596;2023-03-03T04:32:42;101294.09;;;2.01;89.74
55070;BME280;40967;52.070;8.596;2023-03-03T04:35:09;101303.84;;;2.08;89.82
55070;BME280;40967;52.070;8.596;2023-03-03T04:37:35;101304.84;;;2.07;89.45
55070;BME280;40967;52.070;8.596;2023-03-03T04:40:00;101294.53;;;2.04;89.79
55070;BME280;40967;52.070;8.596;2023-03-03T04:42:26;101301.94;;;2.02;90.29
55070;BME280;40967;52.070;8.596;2023-03-03T04:44:52;101307.28;;;2.02;89.66
55070;BME280;40967;52.070;8.596;2023-03-03T04:47:17;101292.38;;;1.93;89.96
55070;BME280;40967;52.070;8.596;2023-03-03T04:49:43;101305.81;;;2.00;89.46
55070;BME280;40967;52.070;8.596;2023-03-03T04:52:08;101309.50;;;1.99;90.32
55070;BME280;40967;52.070;8.596;2023-03-03T04:54:33;101304.97;;;1.93;89.62
55070;BME280;40967;52.070;8.596;2023-03-03T04:56:59;101319.13;;;1.93;89.83
55070;BME280;40967;52.070;8.596;2023-03-03T04:59:24;101305.53;;;1.88;90.29
55070;BME280;40967;52.070;8.596;2023-03-03T05:01:50;101314.00;;;1.92;90.02
55070;BME280;40967;52.070;8.596;2023-03-03T05:04:15;101315.81;;;1.91;90.26
55070;BME280;40967;52.070;8.596;2023-03-03T05:06:41;101336.69;;;1.96;90.59
55070;BME280;40967;52.070;8.596;2023-03-03T05:09:06;101334.38;;;1.93;89.88
55070;BME280;40967;52.070;8.596;2023-03-03T05:11:32;101316.28;;;1.74;90.41
55070;BME280;40967;52.070;8.596;2023-03-03T05:13:57;101322.09;;;1.77;90.86
55070;BME280;40967;52.070;8.596;2023-03-03T05:16:23;101324.59;;;1.79;90.67
55070;BME280;40967;52.070;8.596;2023-03-03T05:18:48;101332.44;;;1.80;91.34
55070;BME280;40967;52.070;8.596;2023-03-03T05:21:14;101334.06;;;1.81;91.50
55070;BME280;40967;52.070;8.596;2023-03-03T05:23:39;101329.25;;;1.70;91.83
55070;BME280;40967;52.070;8.596;2023-03-03T05:26:05;101351.97;;;1.81;92.18
55070;BME280;40967;52.070;8.596;2023-03-03T05:28:31;101338.13;;;1.77;91.78
55070;BME280;40967;52.070;8.596;2023-03-03T05:30:56;101342.28;;;1.80;92.16
55070;BME280;40967;52.070;8.596;2023-03-03T05:33:22;101340.00;;;1.77;92.19
55070;BME280;40967;52.070;8.596;2023-03-03T05:35:52;101338.91;;;1.71;92.11
55070;BME280;40967;52.070;8.596;2023-03-03T05:38:17;101342.50;;;1.78;92.02
55070;BME280;40967;52.070;8.596;2023-03-03T05:40:45;101345.56;;;1.75;92.28
55070;BME280;40967;52.070;8.596;2023-03-03T05:43:11;101347.19;;;1.76;92.64
55070;BME280;40967;52.070;8.596;2023-03-03T05:45:36;101314.34;;;1.61;92.15
55070;BME280;40967;52.070;8.596;2023-03-03T05:48:02;101328.41;;;1.70;92.32
55070;BME280;40967;52.070;8.596;2023-03-03T05:50:29;101341.84;;;1.76;91.66
55070;BME280;40967;52.070;8.596;2023-03-03T05:52:54;101342.25;;;1.73;92.09
55070;BME280;40967;52.070;8.596;2023-03-03T05:55:20;101333.56;;;1.71;91.96
55070;BME280;40967;52.070;8.596;2023-03-03T05:57:46;101334.00;;;1.75;92.14
55070;BME280;40967;52.070;8.596;2023-03-03T06:00:12;101341.22;;;1.74;91.51
55070;BME280;40967;52.070;8.596;2023-03-03T06:02:39;101330.25;;;1.69;90.76
55070;BME280;40967;52.070;8.596;2023-03-03T06:05:05;101346.56;;;1.74;90.78
55070;BME280;40967;52.070;8.596;2023-03-03T06:07:31;101340.56;;;1.72;90.37
55070;BME280;40967;52.070;8.596;2023-03-03T06:09:56;101343.63;;;1.69;91.46
55070;BME280;40967;52.070;8.596;2023-03-03T06:12:22;101343.00;;;1.67;91.78
55070;BME280;40967;52.070;8.596;2023-03-03T06:14:47;101314.22;;;1.48;91.71
55070;BME280;40967;52.070;8.596;2023-03-03T06:17:13;101339.81;;;1.57;91.91
55070;BME280;40967;52.070;8.596;2023-03-03T06:19:38;101349.47;;;1.58;92.37
55070;BME280;40967;52.070;8.596;2023-03-03T06:22:06;101352.16;;;1.58;91.66
55070;BME280;40967;52.070;8.596;2023-03-03T06:24:32;101355.47;;;1.60;92.19
55070;BME280;40967;52.070;8.596;2023-03-03T06:26:58;101359.19;;;1.59;91.78
55070;BME280;40967;52.070;8.596;2023-03-03T06:29:24;101344.53;;;1.55;91.45
55070;BME280;40967;52.070;8.596;2023-03-03T06:31:49;101360.47;;;1.63;91.71
55070;BME280;40967;52.070;8.596;2023-03-03T06:34:14;101353.84;;;1.59;90.76
55070;BME280;40967;52.070;8.596;2023-03-03T06:36:40;101355.03;;;1.57;91.27
55070;BME280;40967;52.070;8.596;2023-03-03T06:39:05;101365.38;;;1.60;91.56
55070;BME280;40967;52.070;8.596;2023-03-03T06:41:31;101373.66;;;1.65;90.66
55070;BME280;40967;52.070;8.596;2023-03-03T06:43:56;101377.13;;;1.65;91.17
55070;BME280;40967;52.070;8.596;2023-03-03T06:46:22;101354.66;;;1.60;90.05
55070;BME280;40967;52.070;8.596;2023-03-03T06:48:48;101381.09;;;1.69;90.85
55070;BME280;40967;52.070;8.596;2023-03-03T06:51:21;101383.75;;;1.69;90.11
55070;BME280;40967;52.070;8.596;2023-03-03T06:53:50;101383.94;;;1.68;89.96
55070;BME280;40967;52.070;8.596;2023-03-03T06:56:17;101391.13;;;1.67;90.21
55070;BME280;40967;52.070;8.596;2023-03-03T06:58:42;101389.44;;;1.60;90.62
55070;BME280;40967;52.070;8.596;2023-03-03T07:01:15;101388.84;;;1.64;90.35
55070;BME280;40967;52.070;8.596;2023-03-03T07:03:41;101391.53;;;1.64;91.03
55070;BME280;40967;52.070;8.596;2023-03-03T07:06:21;101392.56;;;1.63;91.12
55070;BME280;40967;52.070;8.596;2023-03-03T07:08:47;101387.97;;;1.57;90.87
55070;BME280;40967;52.070;8.596;2023-03-03T07:11:17;101403.50;;;1.68;90.37
55070;BME280;40967;52.070;8.596;2023-03-03T07:13:46;101407.56;;;1.64;90.40
55070;BME280;40967;52.070;8.596;2023-03-03T07:16:13;101408.59;;;1.63;90.62
55070;BME280;40967;52.070;8.596;2023-03-03T07:18:56;101416.25;;;1.66;90.33
55070;BME280;40967;52.070;8.596;2023-03-03T07:21:35;101416.88;;;1.68;90.77
55070;BME280;40967;52.070;8.596;2023-03-03T07:26:42;101410.63;;;1.61;91.02
55070;BME280;40967;52.070;8.596;2023-03-03T07:31:40;101428.59;;;1.67;90.93
55070;BME280;40967;52.070;8.596;2023-03-03T07:34:20;101407.06;;;1.54;91.42
55070;BME280;40967;52.070;8.596;2023-03-03T07:36:48;101429.16;;;1.63;91.10
55070;BME280;40967;52.070;8.596;2023-03-03T07:39:29;101432.28;;;1.66;91.14
55070;BME280;40967;52.070;8.596;2023-03-03T07:42:08;101439.28;;;1.67;91.28
55070;BME280;40967;52.070;8.596;2023-03-03T07:44:38;101434.59;;;1.69;90.82
55070;BME280;40967;52.070;8.596;2023-03-03T07:47:29;101440.56;;;1.71;90.39
55070;BME280;40967;52.070;8.596;2023-03-03T07:49:59;101445.72;;;1.73;90.53
55070;BME280;40967;52.070;8.596;2023-03-03T07:52:38;101436.81;;;1.66;90.68
55070;BME280;40967;52.070;8.596;2023-03-03T07:57:53;101447.81;;;1.77;90.17
55070;BME280;40967;52.070;8.596;2023-03-03T08:02:59;101445.59;;;1.81;90.17
55070;BME280;40967;52.070;8.596;2023-03-03T08:05:39;101449.94;;;1.82;89.72
55070;BME280;40967;52.070;8.596;2023-03-03T08:10:42;101458.44;;;1.85;89.69
55070;BME280;40967;52.070;8.596;2023-03-03T08:13:21;101435.94;;;1.80;89.63
55070;BME280;40967;52.070;8.596;2023-03-03T08:18:39;101456.25;;;1.95;89.45
55070;BME280;40967;52.070;8.596;2023-03-03T08:21:13;101470.94;;;1.99;89.41
55070;BME280;40967;52.070;8.596;2023-03-03T08:23:39;101458.34;;;2.00;89.17
55070;BME280;40967;52.070;8.596;2023-03-03T08:26:04;101444.09;;;1.93;89.08
55070;BME280;40967;52.070;8.596;2023-03-03T08:28:30;101446.84;;;1.99;89.26
55070;BME280;40967;52.070;8.596;2023-03-03T08:30:55;101449.97;;;2.03;88.48
55070;BME280;40967;52.070;8.596;2023-03-03T08:33:21;101442.56;;;2.05;88.86
55070;BME280;40967;52.070;8.596;2023-03-03T08:35:47;101451.84;;;2.09;88.25
55070;BME280;40967;52.070;8.596;2023-03-03T08:38:16;101452.31;;;2.12;88.78
55070;BME280;40967;52.070;8.596;2023-03-03T08:40:42;101460.97;;;2.14;88.73
55070;BME280;40967;52.070;8.596;2023-03-03T08:43:08;101457.09;;;2.17;88.11
55070;BME280;40967;52.070;8.596;2023-03-03T08:45:34;101462.91;;;2.20;88.23
55070;BME280;40967;52.070;8.596;2023-03-03T08:48:00;101439.94;;;2.11;88.19
55070;BME280;40967;52.070;8.596;2023-03-03T08:50:26;101448.22;;;2.16;88.81
55070;BME280;40967;52.070;8.596;2023-03-03T08:52:52;101454.91;;;2.27;88.08
55070;BME280;40967;52.070;8.596;2023-03-03T08:55:17;101456.56;;;2.28;88.68
55070;BME280;40967;52.070;8.596;2023-03-03T08:57:43;101465.69;;;2.33;88.51
55070;BME280;40967;52.070;8.596;2023-03-03T09:00:13;101455.59;;;2.36;88.22
55070;BME280;40967;52.070;8.596;2023-03-03T09:02:38;101436.72;;;2.22;88.38
55070;BME280;40967;52.070;8.596;2023-03-03T09:05:05;101461.81;;;2.36;88.32
55070;BME280;40967;52.070;8.596;2023-03-03T09:07:30;101429.09;;;2.19;88.42
55070;BME280;40967;52.070;8.596;2023-03-03T09:09:56;101470.88;;;2.42;88.96
55070;BME280;40967;52.070;8.596;2023-03-03T09:12:28;101469.50;;;2.46;88.47
55070;BME280;40967;52.070;8.596;2023-03-03T09:18:15;101470.13;;;2.48;88.17
55070;BME280;40967;52.070;8.596;2023-03-03T09:20:46;101472.22;;;2.52;88.30
55070;BME280;40967;52.070;8.596;2023-03-03T09:23:38;101471.00;;;2.55;88.23
55070;BME280;40967;52.070;8.596;2023-03-03T09:28:43;101463.13;;;2.47;87.87
55070;BME280;40967;52.070;8.596;2023-03-03T09:31:27;101470.22;;;2.61;87.73
55070;BME280;40967;52.070;8.596;2023-03-03T09:33:56;101473.16;;;2.66;87.20
55070;BME280;40967;52.070;8.596;2023-03-03T09:36:36;101445.13;;;2.41;87.74
55070;BME280;40967;52.070;8.596;2023-03-03T09:39:21;101487.00;;;2.69;87.78
55070;BME280;40967;52.070;8.596;2023-03-03T10:13:19;101500.19;;;3.86;82.75
55070;BME280;40967;52.070;8.596;2023-03-03T10:16:16;101492.41;;;3.98;82.11
55070;BME280;40967;52.070;8.596;2023-03-03T10:21:30;101494.81;;;3.73;82.31
55070;BME280;40967;52.070;8.596;2023-03-03T10:24:29;101499.66;;;3.50;83.69
55070;BME280;40967;52.070;8.596;2023-03-03T10:30:00;101501.56;;;3.56;84.46
55070;BME280;40967;52.070;8.596;2023-03-03T10:32:42;101506.16;;;3.75;83.87
55070;BME280;40967;52.070;8.596;2023-03-03T10:38:25;101516.16;;;3.94;82.67
55070;BME280;40967;52.070;8.596;2023-03-03T10:46:58;101504.34;;;3.82;83.02
55070;BME280;40967;52.070;8.596;2023-03-03T10:49:50;101503.56;;;4.01;82.22
55070;BME280;40967;52.070;8.596;2023-03-03T11:03:52;101512.34;;;4.62;78.88
55070;BME280;40967;52.070;8.596;2023-03-03T11:09:38;101497.63;;;4.45;79.88
55070;BME280;40967;52.070;8.596;2023-03-03T11:18:12;101497.63;;;4.84;79.96
55070;BME280;40967;52.070;8.596;2023-03-03T11:28:53;101492.81;;;5.19;78.89
55070;BME280;40967;52.070;8.596;2023-03-03T11:31:30;101492.38;;;5.35;77.93
55070;BME280;40967;52.070;8.596;2023-03-03T11:37:07;101485.66;;;5.57;76.68
55070;BME280;40967;52.070;8.596;2023-03-03T11:39:34;101473.81;;;5.64;76.71
55070;BME280;40967;52.070;8.596;2023-03-03T11:44:47;101476.44;;;5.77;77.04
55070;BME280;40967;52.070;8.596;2023-03-03T11:55:29;101468.41;;;6.09;76.74
55070;BME280;40967;52.070;8.596;2023-03-03T11:58:28;101470.66;;;6.18;76.51
55070;BME280;40967;52.070;8.596;2023-03-03T12:03:41;101462.25;;;6.02;76.48
55070;BME280;40967;52.070;8.596;2023-03-03T12:09:36;101456.41;;;6.11;76.03
55070;BME280;40967;52.070;8.596;2023-03-03T12:12:13;101451.47;;;6.02;75.69
55070;BME280;40967;52.070;8.596;2023-03-03T12:15:01;101449.63;;;6.02;76.14
55070;BME280;40967;52.070;8.596;2023-03-03T12:29:06;101423.81;;;5.88;75.12
55070;BME280;40967;52.070;8.596;2023-03-03T12:40:08;101424.56;;;6.26;74.76
55070;BME280;40967;52.070;8.596;2023-03-03T12:42:59;101427.34;;;6.44;74.67
55070;BME280;40967;52.070;8.596;2023-03-03T12:48:15;101419.97;;;6.76;73.17
55070;BME280;40967;52.070;8.596;2023-03-03T12:56:17;101395.63;;;6.40;74.50
55070;BME280;40967;52.070;8.596;2023-03-03T12:59:14;101409.16;;;6.58;74.44
55070;BME280;40967;52.070;8.596;2023-03-03T13:02:02;101389.16;;;6.65;74.62
55070;BME280;40967;52.070;8.596;2023-03-03T13:04:45;101389.34;;;6.88;73.85
55070;BME280;40967;52.070;8.596;2023-03-03T13:17:42;101397.72;;;6.13;76.12
55070;BME280;40967;52.070;8.596;2023-03-03T13:26:16;101396.53;;;6.95;72.71
55070;BME280;40967;52.070;8.596;2023-03-03T13:28:57;101399.69;;;7.10;71.37
55070;BME280;40967;52.070;8.596;2023-03-03T13:31:31;101397.91;;;7.04;71.56
55070;BME280;40967;52.070;8.596;2023-03-03T13:33:58;101390.84;;;6.84;71.48
55070;BME280;40967;52.070;8.596;2023-03-03T13:36:34;101379.97;;;6.55;72.20
55070;BME280;40967;52.070;8.596;2023-03-03T13:39:24;101386.31;;;6.60;73.28
55070;BME280;40967;52.070;8.596;2023-03-03T13:41:55;101388.03;;;6.55;73.12
55070;BME280;40967;52.070;8.596;2023-03-03T13:44:33;101382.69;;;6.48;73.42
55070;BME280;40967;52.070;8.596;2023-03-03T13:52:27;101376.88;;;6.69;73.75
55070;BME280;40967;52.070;8.596;2023-03-03T13:55:05;101382.66;;;6.73;73.88
55070;BME280;40967;52.070;8.596;2023-03-03T13:57:42;101383.84;;;6.95;72.65
55070;BME280;40967;52.070;8.596;2023-03-03T14:22:44;101381.03;;;6.72;75.44
55070;BME280;40967;52.070;8.596;2023-03-03T14:25:13;101375.09;;;6.81;73.95
55070;BME280;40967;52.070;8.596;2023-03-03T14:40:36;101365.56;;;6.43;73.48
55070;BME280;40967;52.070;8.596;2023-03-03T14:45:43;101356.19;;;6.21;73.43
55070;BME280;40967;52.070;8.596;2023-03-03T14:48:22;101356.97;;;6.03;74.38
55070;BME280;40967;52.070;8.596;2023-03-03T14:50:51;101357.09;;;5.90;74.94
55070;BME280;40967;52.070;8.596;2023-03-03T14:55:47;101340.44;;;5.31;76.26
55070;BME280;40967;52.070;8.596;2023-03-03T14:58:37;101351.94;;;5.07;77.41
55070;BME280;40967;52.070;8.596;2023-03-03T15:01:13;101337.91;;;4.98;78.10
55070;BME280;40967;52.070;8.596;2023-03-03T15:03:47;101344.47;;;5.15;78.69
55070;BME280;40967;52.070;8.596;2023-03-03T15:06:36;101338.72;;;5.43;77.67
55070;BME280;40967;52.070;8.596;2023-03-03T15:09:36;101332.50;;;5.42;77.51
55070;BME280;40967;52.070;8.596;2023-03-03T15:17:37;101334.44;;;4.91;78.54
55070;BME280;40967;52.070;8.596;2023-03-03T15:33:51;101288.75;;;4.85;81.82
55070;BME280;40967;52.070;8.596;2023-03-03T15:42:03;101301.16;;;5.30;83.07
55070;BME280;40967;52.070;8.596;2023-03-03T15:49:54;101300.91;;;5.62;81.39
55070;BME280;40967;52.070;8.596;2023-03-03T16:00:34;101267.22;;;5.53;79.12
55070;BME280;40967;52.070;8.596;2023-03-03T16:03:21;101287.13;;;5.77;78.24
55070;BME280;40967;52.070;8.596;2023-03-03T16:05:56;101292.13;;;5.73;77.83
55070;BME280;40967;52.070;8.596;2023-03-03T16:11:20;101291.28;;;5.48;77.82
55070;BME280;40967;52.070;8.596;2023-03-03T16:24:48;101295.81;;;5.17;78.75
55070;BME280;40967;52.070;8.596;2023-03-03T16:32:47;101303.00;;;4.92;79.69
55070;BME280;40967;52.070;8.596;2023-03-03T16:35:24;101303.78;;;4.92;79.57
55070;BME280;40967;52.070;8.596;2023-03-03T16:38:02;101306.31;;;4.87;80.36
55070;BME280;40967;52.070;8.596;2023-03-03T16:40:35;101298.88;;;4.83;80.38
55070;BME280;40967;52.070;8.596;2023-03-03T16:54:39;101293.63;;;4.43;81.59
55070;BME280;40967;52.070;8.596;2023-03-03T16:57:36;101303.53;;;4.49;81.74
55070;BME280;40967;52.070;8.596;2023-03-03T17:00:22;101300.22;;;4.54;81.34
55070;BME280;40967;52.070;8.596;2023-03-03T17:06:45;101302.31;;;4.45;80.93
55070;BME280;40967;52.070;8.596;2023-03-03T17:19:44;101305.06;;;4.13;81.33
55070;BME280;40967;52.070;8.596;2023-03-03T17:22:18;101314.97;;;4.12;80.92
55070;BME280;40967;52.070;8.596;2023-03-03T17:30:01;101307.34;;;3.83;82.41
55070;BME280;40967;52.070;8.596;2023-03-03T17:45:58;101308.53;;;3.55;84.62
55070;BME280;40967;52.070;8.596;2023-03-03T17:54:37;101311.66;;;3.58;84.77
55070;BME280;40967;52.070;8.596;2023-03-03T18:06:34;101316.41;;;3.56;85.88
55070;BME280;40967;52.070;8.596;2023-03-03T18:12:03;101313.09;;;3.61;86.14
55070;BME280;40967;52.070;8.596;2023-03-03T18:18:01;101334.56;;;3.61;86.70
55070;BME280;40967;52.070;8.596;2023-03-03T18:20:35;101323.44;;;3.57;86.76
55070;BME280;40967;52.070;8.596;2023-03-03T18:25:59;101326.53;;;3.54;87.38
55070;BME280;40967;52.070;8.596;2023-03-03T18:28:45;101301.53;;;3.40;87.53
55070;BME280;40967;52.070;8.596;2023-03-03T18:40:18;101338.69;;;3.43;89.25
55070;BME280;40967;52.070;8.596;2023-03-03T18:44:47;101333.53;;;3.42;89.53
55070;BME280;40967;52.070;8.596;2023-03-03T18:47:13;101343.22;;;3.49;89.30
55070;BME280;40967;52.070;8.596;2023-03-03T18:52:26;101331.84;;;3.47;89.00
55070;BME280;40967;52.070;8.596;2023-03-03T18:57:36;101347.34;;;3.52;89.52
55070;BME280;40967;52.070;8.596;2023-03-03T19:00:23;101339.91;;;3.47;89.69
55070;BME280;40967;52.070;8.596;2023-03-03T19:02:53;101351.09;;;3.58;89.29
55070;BME280;40967;52.070;8.596;2023-03-03T19:05:23;101349.41;;;3.57;89.28
55070;BME280;40967;52.070;8.596;2023-03-03T19:12:59;101346.53;;;3.58;89.60
55070;BME280;40967;52.070;8.596;2023-03-03T19:18:23;101352.72;;;3.59;89.61
55070;BME280;40967;52.070;8.596;2023-03-03T19:23:47;101341.56;;;3.55;89.54
55070;BME280;40967;52.070;8.596;2023-03-03T19:31:46;101343.66;;;3.66;89.18
55070;BME280;40967;52.070;8.596;2023-03-03T19:37:47;101330.03;;;3.61;88.40
55070;BME280;40967;52.070;8.596;2023-03-03T19:40:17;101350.25;;;3.70;88.70
55070;BME280;40967;52.070;8.596;2023-03-03T19:42:55;101347.78;;;3.69;88.81
55070;BME280;40967;52.070;8.596;2023-03-03T19:48:10;101349.47;;;3.70;88.90
55070;BME280;40967;52.070;8.596;2023-03-03T19:50:50;101347.78;;;3.69;88.71